Terminal Aerodrome Forecast
Issued by NWS

Home | Current Version | Previous Version | Graphics & Text | Print | Product List | Glossary On
Versions: 1 2 3 4 5 6 7 8 9 10 11 12 13 14 15 16 17 18
000
FTUS43 KABR 201120
TAFMBG
TAF
KMBG 201120Z 2012/2112 15012KT P6SM SCT250
     FM210300 17017KT P6SM BKN250 WS020/19040KT
     FM210700 27011KT P6SM SCT250
     FM211000 30015G23KT P6SM BKN200=

USA.gov is the U.S. government's official web portal to all federal, state and local government web resources and services.